Восстановление ориентировки

Описание:


Критерии:
Восстановление ориентировки. Полет онлайн при наличии контроля. Для выполнения задания обновление погоды с сервера в FSInn надо отключить. Борт вылетает в условиях, введенных в чат FSInn данных для ПВП (.metar UUDD 021500Z 14007MPS 9999 02/02 Q1024) с любой рабочей площадки. Летит по произвольному маршруту. По команде РП вводит в чат FSInn условия ППП (.metar UUDD 021500Z 14007MPS 500 OVC003 02/02 Q1024) и осуществляет маневрирование (тоже по команде). Затем опять по команде РП вводит прежние условия ПВП и приступает к восстановлению ориентировки. Задание считается выполненным, если в течение 1 мин полностью восстановлена ориентировка и доложены координаты РП. Из 3-х попыток необходимо выполнить все 3 успешно.

© InSky 2013